createdAt,value
2023-01-19T00:01:46.888Z,1.65
2023-01-19T00:04:16.263Z,1.61
2023-01-19T00:06:46.722Z,1.60
2023-01-19T00:09:16.104Z,1.57
2023-01-19T00:11:45.166Z,1.56
2023-01-19T00:14:14.867Z,1.57
2023-01-19T00:16:43.850Z,1.56
2023-01-19T00:19:13.312Z,1.56
2023-01-19T00:21:42.417Z,1.56
2023-01-19T00:24:14.688Z,1.56
2023-01-19T00:26:43.994Z,1.56
2023-01-19T00:29:14.511Z,1.55
2023-01-19T00:31:44.684Z,1.53
2023-01-19T00:34:14.340Z,1.56
2023-01-19T00:36:43.973Z,1.58
2023-01-19T00:39:14.809Z,1.61
2023-01-19T00:42:01.808Z,1.63
2023-01-19T00:44:31.285Z,1.66
2023-01-19T00:47:01.101Z,1.65
2023-01-19T00:49:30.710Z,1.63
2023-01-19T00:51:59.752Z,1.63
2023-01-19T00:54:30.562Z,1.59
2023-01-19T00:56:59.648Z,1.62
2023-01-19T00:59:28.903Z,1.62
2023-01-19T01:01:58.346Z,1.63
2023-01-19T01:04:27.892Z,1.64
2023-01-19T01:06:57.189Z,1.64
2023-01-19T01:09:26.631Z,1.62
2023-01-19T01:11:57.893Z,1.61
2023-01-19T01:14:29.317Z,1.61
2023-01-19T01:16:58.649Z,1.62
2023-01-19T01:19:28.079Z,1.60
2023-01-19T01:21:57.278Z,1.60
2023-01-19T01:24:26.726Z,1.61
2023-01-19T01:26:57.328Z,1.62
2023-01-19T01:29:26.906Z,1.64
2023-01-19T01:31:55.976Z,1.62
2023-01-19T01:34:25.469Z,1.62
2023-01-19T01:36:54.615Z,1.63
2023-01-19T01:39:24.063Z,1.62
2023-01-19T01:41:53.144Z,1.62
2023-01-19T01:44:53.047Z,1.64
2023-01-19T01:47:28.225Z,1.63
2023-01-19T01:50:03.322Z,1.65
2023-01-19T01:52:36.600Z,1.67
2023-01-19T01:55:08.186Z,1.70
2023-01-19T01:57:40.555Z,1.72
2023-01-19T02:00:13.242Z,1.71
2023-01-19T02:02:51.352Z,1.74
2023-01-19T02:05:25.565Z,1.75
2023-01-19T02:08:18.342Z,1.76
2023-01-19T02:11:06.492Z,1.73
2023-01-19T02:13:39.892Z,1.76
2023-01-19T02:16:12.950Z,1.77
2023-01-19T02:18:43.076Z,1.79
2023-01-19T02:21:18.984Z,1.82
2023-01-19T02:23:51.898Z,1.84
2023-01-19T02:26:24.003Z,1.83
2023-01-19T02:28:58.529Z,1.81
2023-01-19T02:31:29.786Z,1.77
2023-01-19T02:34:00.593Z,1.76
2023-01-19T02:36:36.836Z,1.76
2023-01-19T02:39:09.681Z,1.72
2023-01-19T02:41:44.288Z,1.72
2023-01-19T02:44:16.012Z,1.71
2023-01-19T02:46:45.835Z,1.73
2023-01-19T02:49:14.917Z,1.71
2023-01-19T02:51:45.643Z,1.73
2023-01-19T02:54:37.642Z,1.71
2023-01-19T02:57:25.919Z,1.72
2023-01-19T03:00:08.094Z,1.70
2023-01-19T03:02:51.102Z,1.67
2023-01-19T03:05:30.526Z,1.65
2023-01-19T03:08:09.672Z,1.61
2023-01-19T03:10:49.299Z,1.62
2023-01-19T03:13:22.908Z,1.57
2023-01-19T03:15:55.760Z,1.56
2023-01-19T03:18:29.040Z,1.55
2023-01-19T03:21:01.698Z,1.53
2023-01-19T03:23:33.310Z,1.53
2023-01-19T03:26:06.333Z,1.54
2023-01-19T03:28:40.138Z,1.53
2023-01-19T03:31:23.905Z,1.54
2023-01-19T03:33:57.702Z,1.51
2023-01-19T03:36:31.983Z,1.50
2023-01-19T03:39:03.591Z,1.51
2023-01-19T03:41:36.042Z,1.52
2023-01-19T03:44:06.964Z,1.50
2023-01-19T03:46:36.609Z,1.53
2023-01-19T03:49:07.703Z,1.53
2023-01-19T03:51:39.054Z,1.52
2023-01-19T03:54:10.820Z,1.51
2023-01-19T03:56:41.430Z,1.50
2023-01-19T03:59:10.898Z,1.51
2023-01-19T04:01:39.982Z,1.54
2023-01-19T04:04:09.336Z,1.55
2023-01-19T04:06:38.484Z,1.54
2023-01-19T04:09:08.201Z,1.53
2023-01-19T04:11:37.425Z,1.52
2023-01-19T04:14:08.258Z,1.53
2023-01-19T04:16:37.715Z,1.54
2023-01-19T04:19:07.073Z,1.54
2023-01-19T04:21:36.363Z,1.55
2023-01-19T04:24:06.032Z,1.56
2023-01-19T04:26:35.282Z,1.57
2023-01-19T04:29:04.595Z,1.55
2023-01-19T04:31:35.721Z,1.54
2023-01-19T04:34:05.590Z,1.54
2023-01-19T04:36:35.368Z,1.53
2023-01-19T04:39:05.147Z,1.53
2023-01-19T04:41:34.445Z,1.51
2023-01-19T04:44:04.328Z,1.49
2023-01-19T04:46:35.088Z,1.48
2023-01-19T04:49:04.644Z,1.46
2023-01-19T04:51:34.461Z,1.43
2023-01-19T04:54:04.069Z,1.41
2023-01-19T04:56:33.176Z,1.41
2023-01-19T04:59:03.012Z,1.42
2023-01-19T05:01:32.595Z,1.46
2023-01-19T05:04:06.550Z,1.43
2023-01-19T05:06:37.398Z,1.38
2023-01-19T05:09:08.081Z,1.31
2023-01-19T05:11:37.350Z,1.26
2023-01-19T05:14:06.908Z,1.19
2023-01-19T05:16:36.093Z,1.17
2023-01-19T05:19:06.857Z,1.13
2023-01-19T05:21:36.232Z,1.09
2023-01-19T05:24:05.819Z,1.06
2023-01-19T05:26:35.314Z,1.00
2023-01-19T05:29:04.708Z,0.97
2023-01-19T05:31:33.845Z,0.90
2023-01-19T05:34:03.350Z,0.85
2023-01-19T05:36:34.008Z,0.81
2023-01-19T05:39:03.457Z,0.73
2023-01-19T05:41:32.505Z,0.64
2023-01-19T05:44:01.986Z,0.63
2023-01-19T05:46:31.249Z,0.58
2023-01-19T05:49:01.713Z,0.56
2023-01-19T05:51:35.327Z,0.51
2023-01-19T05:54:05.209Z,0.42
2023-01-19T05:56:35.545Z,0.35
2023-01-19T05:59:04.892Z,0.28
2023-01-19T06:01:34.828Z,0.23
2023-01-19T06:04:04.222Z,0.19
2023-01-19T06:06:34.966Z,0.18
2023-01-19T06:09:04.535Z,0.15
2023-01-19T06:11:33.572Z,0.11
2023-01-19T06:14:03.161Z,0.08
2023-01-19T06:16:32.469Z,0.05
2023-01-19T06:19:01.882Z,0.00
2023-01-19T06:21:33.081Z,-0.04
2023-01-19T06:24:03.595Z,-0.07
2023-01-19T06:26:32.996Z,-0.11
2023-01-19T06:29:02.353Z,-0.15
2023-01-19T06:31:31.660Z,-0.18
2023-01-19T06:34:01.064Z,-0.22
2023-01-19T06:36:30.239Z,-0.25
2023-01-19T06:39:03.562Z,-0.27
2023-01-19T06:41:33.255Z,-0.31
2023-01-19T06:44:02.911Z,-0.35
2023-01-19T06:46:32.465Z,-0.40
2023-01-19T06:49:02.119Z,-0.43
2023-01-19T06:51:31.310Z,-0.44
2023-01-19T06:54:02.573Z,-0.50
2023-01-19T06:56:31.863Z,-0.51
2023-01-19T06:59:01.229Z,-0.54
2023-01-19T07:01:30.480Z,-0.56
2023-01-19T07:03:59.930Z,-0.58
2023-01-19T07:06:29.453Z,-0.61
2023-01-19T07:09:00.278Z,-0.63
2023-01-19T07:11:33.224Z,-0.65
2023-01-19T07:14:04.014Z,-0.68
2023-01-19T07:16:34.162Z,-0.71
2023-01-19T07:19:03.551Z,-0.72
2023-01-19T07:21:32.759Z,-0.73
2023-01-19T07:24:02.323Z,-0.76
2023-01-19T07:26:32.907Z,-0.77
2023-01-19T07:29:02.399Z,-0.79
2023-01-19T07:31:31.619Z,-0.80
2023-01-19T07:34:01.442Z,-0.82
2023-01-19T07:36:30.509Z,-0.82
2023-01-19T07:38:59.949Z,-0.81
2023-01-19T07:41:29.134Z,-0.81
2023-01-19T07:44:00.035Z,-0.83
2023-01-19T07:46:29.228Z,-0.87
2023-01-19T07:48:58.801Z,-0.89
2023-01-19T07:51:28.343Z,-0.89
2023-01-19T07:53:58.197Z,-0.90
2023-01-19T07:56:27.896Z,-0.88
2023-01-19T07:58:57.870Z,-0.87
2023-01-19T08:01:29.625Z,-0.84
2023-01-19T08:03:59.196Z,-0.80
2023-01-19T08:06:34.536Z,-0.76
2023-01-19T08:09:05.886Z,-0.73
2023-01-19T08:11:35.402Z,-0.70
2023-01-19T08:14:06.954Z,-0.68
2023-01-19T08:16:38.619Z,-0.66
2023-01-19T08:19:08.136Z,-0.64
2023-01-19T08:21:38.933Z,-0.64
2023-01-19T08:24:18.079Z,-0.63
2023-01-19T08:26:47.683Z,-0.62
2023-01-19T08:29:17.127Z,-0.64
2023-01-19T08:31:48.031Z,-0.63
2023-01-19T08:34:17.883Z,-0.60
2023-01-19T08:36:47.475Z,-0.61
2023-01-19T08:39:18.029Z,-0.60
2023-01-19T08:41:47.249Z,-0.59
2023-01-19T08:44:17.096Z,-0.59
2023-01-19T08:46:47.872Z,-0.59
2023-01-19T08:49:17.348Z,-0.58
2023-01-19T08:51:47.503Z,-0.56
2023-01-19T08:54:18.529Z,-0.56
2023-01-19T08:56:48.032Z,-0.54
2023-01-19T08:59:18.029Z,-0.53
2023-01-19T09:01:49.379Z,-0.52
2023-01-19T09:04:18.956Z,-0.49
2023-01-19T09:06:48.375Z,-0.50
2023-01-19T09:09:17.796Z,-0.48
2023-01-19T09:11:46.882Z,-0.47
2023-01-19T09:14:16.322Z,-0.47
2023-01-19T09:16:45.507Z,-0.44
2023-01-19T09:19:16.519Z,-0.43
2023-01-19T09:21:45.801Z,-0.41
2023-01-19T09:24:15.185Z,-0.39
2023-01-19T09:26:44.605Z,-0.38
2023-01-19T09:29:14.005Z,-0.36
2023-01-19T09:31:44.142Z,-0.34
2023-01-19T09:34:15.830Z,-0.33
2023-01-19T09:36:45.097Z,-0.31
2023-01-19T09:39:14.487Z,-0.28
2023-01-19T09:41:50.963Z,-0.25
2023-01-19T09:44:29.131Z,-0.22
2023-01-19T09:46:58.870Z,-0.21
2023-01-19T09:49:33.901Z,-0.18
2023-01-19T09:52:04.625Z,-0.14
2023-01-19T09:54:43.075Z,-0.13
2023-01-19T09:57:13.717Z,-0.11
2023-01-19T09:59:47.804Z,-0.08
2023-01-19T10:02:36.981Z,-0.05
2023-01-19T10:05:24.694Z,-0.02
2023-01-19T10:08:08.944Z,0.00
2023-01-19T10:10:42.360Z,0.03
2023-01-19T10:13:30.812Z,0.07
2023-01-19T10:16:18.782Z,0.11
2023-01-19T10:18:51.645Z,0.14
2023-01-19T10:21:26.108Z,0.16
2023-01-19T10:23:59.970Z,0.21
2023-01-19T10:26:36.342Z,0.24
2023-01-19T10:29:10.907Z,0.27
2023-01-19T10:31:43.520Z,0.29
2023-01-19T10:34:20.960Z,0.33
2023-01-19T10:37:00.142Z,0.37
2023-01-19T10:39:29.559Z,0.39
2023-01-19T10:42:03.635Z,0.43
2023-01-19T10:44:38.400Z,0.47
2023-01-19T10:47:16.164Z,0.51
2023-01-19T10:49:45.987Z,0.56
2023-01-19T10:52:25.953Z,0.57
2023-01-19T10:54:55.489Z,0.62
2023-01-19T10:57:32.748Z,0.67
2023-01-19T11:00:02.444Z,0.72
2023-01-19T11:02:35.031Z,0.78
2023-01-19T11:05:24.615Z,0.86
2023-01-19T11:07:56.359Z,0.89
2023-01-19T11:10:27.476Z,0.94
2023-01-19T11:13:04.252Z,1.05
2023-01-19T11:15:45.097Z,1.11
2023-01-19T11:18:28.519Z,1.16
2023-01-19T11:21:01.065Z,1.22
2023-01-19T11:23:35.154Z,1.27
2023-01-19T11:26:07.489Z,1.31
2023-01-19T11:28:43.604Z,1.38
2023-01-19T11:31:31.262Z,1.51
2023-01-19T11:34:02.343Z,1.62
2023-01-19T11:36:33.645Z,1.61
2023-01-19T11:39:23.785Z,1.65
2023-01-19T11:41:56.339Z,1.68
2023-01-19T11:44:30.555Z,1.71
2023-01-19T11:47:03.686Z,1.77
2023-01-19T11:49:45.477Z,1.82
2023-01-19T11:52:27.099Z,1.85
2023-01-19T11:55:03.352Z,1.93
2023-01-19T11:57:47.199Z,1.95
2023-01-19T12:00:23.963Z,1.99
2023-01-19T12:02:58.592Z,2.01
2023-01-19T12:05:33.071Z,2.07
2023-01-19T12:08:07.129Z,2.15
2023-01-19T12:10:43.714Z,2.22
2023-01-19T12:13:21.852Z,2.30
2023-01-19T12:15:57.904Z,2.32
2023-01-19T12:18:31.650Z,2.39
2023-01-19T12:21:03.924Z,2.41
2023-01-19T12:23:54.854Z,2.46
2023-01-19T12:26:38.386Z,2.48
2023-01-19T12:29:14.910Z,2.50
2023-01-19T12:31:44.546Z,2.54
2023-01-19T12:34:41.974Z,2.60
2023-01-19T12:37:33.270Z,2.57
2023-01-19T12:40:09.017Z,2.58
2023-01-19T12:42:47.726Z,2.60
2023-01-19T12:45:23.390Z,2.59
2023-01-19T12:47:53.700Z,2.60
2023-01-19T12:50:25.940Z,2.63
2023-01-19T12:52:58.697Z,2.64
2023-01-19T12:55:31.310Z,2.62
2023-01-19T12:58:05.953Z,2.64
2023-01-19T13:00:40.957Z,2.64
2023-01-19T13:03:46.366Z,2.63
2023-01-19T13:06:15.600Z,2.60
2023-01-19T13:09:01.949Z,2.59
2023-01-19T13:11:34.591Z,2.57
2023-01-19T13:14:36.783Z,2.58
2023-01-19T13:17:29.811Z,2.58
2023-01-19T13:20:35.089Z,2.59
2023-01-19T13:23:26.464Z,2.61
2023-01-19T13:26:03.788Z,2.60
2023-01-19T13:28:40.382Z,2.63
2023-01-19T13:31:13.037Z,2.66
2023-01-19T13:33:50.820Z,2.68
2023-01-19T13:36:26.330Z,2.68
2023-01-19T13:38:58.111Z,2.71
2023-01-19T13:41:30.912Z,2.72
2023-01-19T13:44:03.527Z,2.74
2023-01-19T13:46:35.129Z,2.76
2023-01-19T13:49:13.010Z,2.76
2023-01-19T13:51:42.593Z,2.78
2023-01-19T13:54:18.446Z,2.79
2023-01-19T13:56:51.201Z,2.81
2023-01-19T13:59:20.569Z,2.80
2023-01-19T14:01:53.371Z,2.81
2023-01-19T14:04:28.525Z,2.82
2023-01-19T14:07:01.833Z,2.81
2023-01-19T14:09:31.549Z,2.81
2023-01-19T14:12:12.108Z,2.81
2023-01-19T14:14:41.900Z,2.80
2023-01-19T14:17:32.223Z,2.79
2023-01-19T14:20:04.082Z,2.79
2023-01-19T14:22:42.442Z,2.80
2023-01-19T14:25:31.613Z,2.80
2023-01-19T14:28:39.321Z,2.79
2023-01-19T14:31:22.753Z,2.79
2023-01-19T14:33:53.970Z,2.80
2023-01-19T14:36:39.328Z,2.81
2023-01-19T14:39:18.404Z,2.79
2023-01-19T14:41:52.414Z,2.79
2023-01-19T14:44:29.585Z,2.78
2023-01-19T14:46:59.808Z,2.78
2023-01-19T14:49:34.701Z,2.79
2023-01-19T14:52:08.999Z,2.79
2023-01-19T14:54:41.858Z,2.76
2023-01-19T14:57:13.967Z,2.76
2023-01-19T14:59:49.593Z,2.76
2023-01-19T15:02:19.824Z,2.75
2023-01-19T15:04:53.837Z,2.72
2023-01-19T15:07:26.542Z,2.72
2023-01-19T15:09:56.398Z,2.72
2023-01-19T15:12:29.351Z,2.71
2023-01-19T15:14:59.061Z,2.69
2023-01-19T15:17:28.398Z,2.67
2023-01-19T15:19:58.264Z,2.66
2023-01-19T15:22:30.055Z,2.64
2023-01-19T15:25:00.347Z,2.63
2023-01-19T15:27:31.623Z,2.62
2023-01-19T15:30:01.351Z,2.61
2023-01-19T15:32:30.530Z,2.62
2023-01-19T15:34:59.972Z,2.61
2023-01-19T15:37:30.628Z,2.60
2023-01-19T15:40:00.165Z,2.60
2023-01-19T15:42:29.245Z,2.59
2023-01-19T15:44:58.744Z,2.58
2023-01-19T15:47:28.094Z,2.58
2023-01-19T15:49:57.622Z,2.58
2023-01-19T15:52:26.761Z,2.57
2023-01-19T15:54:58.311Z,2.56
2023-01-19T15:57:27.684Z,2.55
2023-01-19T15:59:57.110Z,2.54
2023-01-19T16:02:26.230Z,2.56
2023-01-19T16:04:57.404Z,2.52
2023-01-19T16:07:26.721Z,2.51
2023-01-19T16:09:57.643Z,2.49
2023-01-19T16:12:27.375Z,2.48
2023-01-19T16:14:56.514Z,2.45
2023-01-19T16:17:25.732Z,2.43
2023-01-19T16:19:55.151Z,2.43
2023-01-19T16:22:24.313Z,2.42
2023-01-19T16:24:56.573Z,2.38
2023-01-19T16:27:28.648Z,2.40
2023-01-19T16:30:00.216Z,2.39
2023-01-19T16:32:29.541Z,2.37
2023-01-19T16:34:58.927Z,2.34
2023-01-19T16:37:28.804Z,2.34
2023-01-19T16:39:58.226Z,2.33
2023-01-19T16:42:29.324Z,2.31
2023-01-19T16:44:58.824Z,2.32
2023-01-19T16:47:28.025Z,2.29
2023-01-19T16:49:57.733Z,2.29
2023-01-19T16:52:26.850Z,2.29
2023-01-19T16:54:56.290Z,2.25
2023-01-19T16:57:25.748Z,2.23
2023-01-19T16:59:56.813Z,2.20
2023-01-19T17:02:26.980Z,2.19
2023-01-19T17:04:56.506Z,2.17
2023-01-19T17:07:26.448Z,2.15
2023-01-19T17:09:56.183Z,2.13
2023-01-19T17:12:25.547Z,2.10
2023-01-19T17:14:56.288Z,2.07
2023-01-19T17:17:25.687Z,2.05
2023-01-19T17:19:55.245Z,2.03
2023-01-19T17:22:24.471Z,1.99
2023-01-19T17:24:54.431Z,1.98
2023-01-19T17:27:23.516Z,1.97
2023-01-19T17:29:52.971Z,1.98
2023-01-19T17:32:23.651Z,1.96
2023-01-19T17:34:53.327Z,1.96
2023-01-19T17:37:22.811Z,1.95
2023-01-19T17:39:52.428Z,1.97
2023-01-19T17:42:21.576Z,1.97
2023-01-19T17:44:51.156Z,1.97
2023-01-19T17:47:24.673Z,1.98
2023-01-19T17:49:55.663Z,2.01
2023-01-19T17:52:25.367Z,2.01
2023-01-19T17:54:54.531Z,1.99
2023-01-19T17:57:23.821Z,2.00
2023-01-19T17:59:53.229Z,2.01
2023-01-19T18:02:24.499Z,2.04
2023-01-19T18:04:56.630Z,2.04
2023-01-19T18:07:26.077Z,2.05
2023-01-19T18:09:58.586Z,2.06
2023-01-19T18:12:29.326Z,2.08
2023-01-19T18:14:58.880Z,2.10
2023-01-19T18:17:28.370Z,2.11
2023-01-19T18:20:00.728Z,2.12
2023-01-19T18:22:30.037Z,2.13
2023-01-19T18:24:59.537Z,2.13
2023-01-19T18:27:29.213Z,2.15
2023-01-19T18:29:58.409Z,2.14
2023-01-19T18:32:27.997Z,2.17
2023-01-19T18:34:59.331Z,2.17
2023-01-19T18:37:29.207Z,2.18
2023-01-19T18:40:02.202Z,2.18
2023-01-19T18:42:34.006Z,2.18
2023-01-19T18:45:03.540Z,2.19
2023-01-19T18:47:35.242Z,2.19
2023-01-19T18:50:06.740Z,2.22
2023-01-19T18:52:40.963Z,2.20
2023-01-19T18:55:14.728Z,2.19
2023-01-19T18:57:45.861Z,2.20
2023-01-19T19:00:15.985Z,2.22
2023-01-19T19:02:46.182Z,2.23
2023-01-19T19:05:17.247Z,2.24
2023-01-19T19:07:47.134Z,2.24
2023-01-19T19:10:17.390Z,2.26
2023-01-19T19:12:51.553Z,2.28
2023-01-19T19:15:21.174Z,2.29
2023-01-19T19:17:50.443Z,2.29
2023-01-19T19:20:23.313Z,2.30
2023-01-19T19:22:53.490Z,2.32
2023-01-19T19:25:23.450Z,2.33
2023-01-19T19:27:53.567Z,2.34
2023-01-19T19:30:23.142Z,2.33
2023-01-19T19:32:56.095Z,2.33
2023-01-19T19:35:30.739Z,2.33
2023-01-19T19:38:01.135Z,2.32
2023-01-19T19:40:30.606Z,2.33
2023-01-19T19:43:01.087Z,2.35
2023-01-19T19:45:30.616Z,2.36
2023-01-19T19:48:00.084Z,2.38
2023-01-19T19:50:30.993Z,2.37
2023-01-19T19:53:00.934Z,2.37
2023-01-19T19:55:30.167Z,2.35
2023-01-19T19:57:59.267Z,2.36
2023-01-19T20:00:29.547Z,2.38
2023-01-19T20:02:59.222Z,2.36
2023-01-19T20:05:31.401Z,2.38
2023-01-19T20:08:00.851Z,2.39
2023-01-19T20:10:30.374Z,2.37
2023-01-19T20:12:59.709Z,2.40
2023-01-19T20:15:29.352Z,2.40
2023-01-19T20:18:13.728Z,2.41
2023-01-19T20:20:44.931Z,2.41
2023-01-19T20:23:14.883Z,2.40
2023-01-19T20:25:44.375Z,2.40
2023-01-19T20:28:13.636Z,2.40
2023-01-19T20:30:43.348Z,2.37
2023-01-19T20:33:12.737Z,2.37
2023-01-19T20:35:44.188Z,2.36
2023-01-19T20:38:13.646Z,2.35
2023-01-19T20:40:43.259Z,2.34
2023-01-19T20:43:12.499Z,2.32
2023-01-19T20:45:41.998Z,2.32
2023-01-19T20:48:14.515Z,2.30
2023-01-19T20:50:47.007Z,2.28
2023-01-19T20:53:16.375Z,2.27
2023-01-19T20:55:46.533Z,2.26
2023-01-19T20:58:15.850Z,2.26
2023-01-19T21:00:46.181Z,2.24
2023-01-19T21:03:15.502Z,2.23
2023-01-19T21:05:48.457Z,2.22
2023-01-19T21:08:18.597Z,2.21
2023-01-19T21:10:49.001Z,2.21
2023-01-19T21:13:18.283Z,2.20
2023-01-19T21:15:47.855Z,2.20
2023-01-19T21:18:17.313Z,2.19
2023-01-19T21:20:49.337Z,2.23
2023-01-19T21:23:19.955Z,2.29
2023-01-19T21:25:52.790Z,2.26
2023-01-19T21:28:23.091Z,2.24
2023-01-19T21:30:53.207Z,2.22
2023-01-19T21:33:23.501Z,2.19
2023-01-19T21:35:56.329Z,2.19
2023-01-19T21:38:28.062Z,2.20
2023-01-19T21:40:59.700Z,2.18
2023-01-19T21:43:29.825Z,2.18
2023-01-19T21:46:10.879Z,2.20
2023-01-19T21:48:40.649Z,2.20
2023-01-19T21:51:12.176Z,2.20
2023-01-19T21:53:42.088Z,2.19
2023-01-19T21:56:12.763Z,2.16
2023-01-19T21:58:42.749Z,2.15
2023-01-19T22:01:13.719Z,2.15
2023-01-19T22:03:43.803Z,2.15
2023-01-19T22:06:15.942Z,2.17
2023-01-19T22:08:46.672Z,2.20
2023-01-19T22:11:18.821Z,2.17
2023-01-19T22:13:48.569Z,2.16
2023-01-19T22:16:20.468Z,2.11
2023-01-19T22:18:54.102Z,2.12
2023-01-19T22:21:29.043Z,2.10
2023-01-19T22:24:00.568Z,2.05
2023-01-19T22:26:31.149Z,2.01
2023-01-19T22:29:02.833Z,2.01
2023-01-19T22:31:32.727Z,1.98
2023-01-19T22:34:01.997Z,1.96
2023-01-19T22:36:34.573Z,1.96
2023-01-19T22:39:05.832Z,2.00
2023-01-19T22:41:37.876Z,1.97
2023-01-19T22:44:11.336Z,1.98
2023-01-19T22:46:41.013Z,1.96
2023-01-19T22:49:12.068Z,1.97
2023-01-19T22:51:43.705Z,1.96
2023-01-19T22:54:13.313Z,1.90
2023-01-19T22:56:42.919Z,1.85
2023-01-19T22:59:11.998Z,1.84
2023-01-19T23:01:43.442Z,1.84
2023-01-19T23:04:15.748Z,1.81
2023-01-19T23:06:50.485Z,1.79
2023-01-19T23:09:20.275Z,1.75
2023-01-19T23:11:51.231Z,1.72
2023-01-19T23:14:22.889Z,1.67
2023-01-19T23:16:52.567Z,1.62
2023-01-19T23:19:21.694Z,1.52
2023-01-19T23:21:53.882Z,1.51
2023-01-19T23:24:23.040Z,1.44
2023-01-19T23:26:52.668Z,1.29
2023-01-19T23:29:21.893Z,1.25
2023-01-19T23:31:53.583Z,1.18
2023-01-19T23:34:22.854Z,1.11
2023-01-19T23:36:53.826Z,1.05
2023-01-19T23:39:23.959Z,0.98
2023-01-19T23:41:54.160Z,0.96
2023-01-19T23:44:23.436Z,0.98
2023-01-19T23:46:52.868Z,0.95
2023-01-19T23:49:22.014Z,0.87
2023-01-19T23:51:52.869Z,0.82
2023-01-19T23:54:22.165Z,0.75
2023-01-19T23:56:52.025Z,0.70
2023-01-19T23:59:21.249Z,0.66
